Time,TemperatureF,DewpointF,PressureIn,WindDirection,WindDirectionDegrees,WindSpeedMPH,WindSpeedGustMPH,Humidity,HourlyPrecipIn,Conditions,Clouds,dailyrainin,SolarRadiationWatts/m^2,SoftwareType,DateUTC
2013-08-16 00:00:00,60.0,51.0,30.12,WSW,255,11.0,14.0,72,0.00,,,0.00,0,weatherlink.com 1.10,2013-08-16 04:00:00,
2013-08-16 00:15:00,59.3,51.0,30.12,WSW,256,6.0,14.0,74,0.00,,,0.00,0,weatherlink.com 1.10,2013-08-16 04:15:00,
2013-08-16 00:30:00,59.1,51.0,30.12,WSW,254,11.0,14.0,75,0.00,,,0.00,0,weatherlink.com 1.10,2013-08-16 04:30:00,
2013-08-16 00:45:00,58.7,51.0,30.12,WSW,252,8.0,15.0,76,0.00,,,0.00,0,weatherlink.com 1.10,2013-08-16 04:45:00,
2013-08-16 01:00:00,58.6,51.0,30.12,WSW,257,10.0,13.0,76,0.00,,,0.00,0,weatherlink.com 1.10,2013-08-16 05:00:00,
2013-08-16 01:15:00,58.3,51.0,30.12,WSW,254,8.0,12.0,76,0.00,,,0.00,0,weatherlink.com 1.10,2013-08-16 05:15:00,
2013-08-16 01:30:00,58.1,51.0,30.11,WSW,253,8.0,11.0,76,0.00,,,0.00,0,weatherlink.com 1.10,2013-08-16 05:30:00,
2013-08-16 01:45:00,58.5,51.0,30.11,West,259,10.0,13.0,75,0.00,,,0.00,0,weatherlink.com 1.10,2013-08-16 05:45:00,
2013-08-16 02:00:00,58.6,50.0,30.12,WSW,252,10.0,15.0,73,0.00,,,0.00,0,weatherlink.com 1.10,2013-08-16 06:00:00,
2013-08-16 02:15:00,58.6,50.0,30.12,West,270,12.0,12.0,72,0.00,,,0.00,0,weatherlink.com 1.10,2013-08-16 06:15:00,
2013-08-16 02:30:00,59.1,49.0,30.12,West,262,7.0,14.0,70,0.00,,,0.00,0,weatherlink.com 1.10,2013-08-16 06:30:00,
2013-08-16 02:45:00,58.8,49.0,30.11,West,270,11.0,12.0,70,0.00,,,0.00,0,weatherlink.com 1.10,2013-08-16 06:45:00,
2013-08-16 03:01:00,58.6,49.0,30.11,West,264,6.0,12.0,70,0.00,,,0.00,0,weatherlink.com 1.10,2013-08-16 07:01:00,
2013-08-16 03:16:00,58.8,49.0,30.11,West,268,8.0,11.0,69,0.00,,,0.00,0,weatherlink.com 1.10,2013-08-16 07:16:00,
2013-08-16 03:31:00,58.8,49.0,30.11,West,262,9.0,10.0,69,0.00,,,0.00,0,weatherlink.com 1.10,2013-08-16 07:31:00,
2013-08-16 03:46:00,58.8,48.0,30.11,West,262,6.0,9.0,68,0.00,,,0.00,0,weatherlink.com 1.10,2013-08-16 07:46:00,
2013-08-16 04:01:00,58.7,49.0,30.11,West,261,6.0,8.0,69,0.00,,,0.00,0,weatherlink.com 1.10,2013-08-16 08:01:00,
2013-08-16 04:16:00,57.5,49.0,30.11,West,261,7.0,8.0,73,0.00,,,0.00,0,weatherlink.com 1.10,2013-08-16 08:16:00,
2013-08-16 04:31:00,56.9,49.0,30.11,SW,231,7.0,9.0,74,0.00,,,0.00,0,weatherlink.com 1.10,2013-08-16 08:31:00,
2013-08-16 04:46:00,57.0,48.0,30.11,WSW,241,7.0,11.0,73,0.00,,,0.00,0,weatherlink.com 1.10,2013-08-16 08:46:00,
2013-08-16 05:01:00,56.6,49.0,30.12,SW,235,10.0,12.0,75,0.00,,,0.00,0,weatherlink.com 1.10,2013-08-16 09:01:00,
2013-08-16 05:16:00,56.6,49.0,30.12,SW,234,3.0,10.0,75,0.00,,,0.00,0,weatherlink.com 1.10,2013-08-16 09:16:00,
2013-08-16 05:31:00,57.2,48.0,30.12,WSW,242,4.0,13.0,72,0.00,,,0.00,0,weatherlink.com 1.10,2013-08-16 09:31:00,
2013-08-16 05:46:00,57.3,48.0,30.12,SW,227,7.0,11.0,71,0.00,,,0.00,0,weatherlink.com 1.10,2013-08-16 09:46:00,
2013-08-16 06:01:00,57.4,48.0,30.12,WSW,237,7.0,11.0,71,0.00,,,0.00,9,weatherlink.com 1.10,2013-08-16 10:01:00,
2013-08-16 06:16:00,57.1,48.0,30.13,SW,232,5.0,9.0,72,0.00,,,0.00,18,weatherlink.com 1.10,2013-08-16 10:16:00,
2013-08-16 06:31:00,57.2,48.0,30.13,SW,233,8.0,11.0,72,0.00,,,0.00,28,weatherlink.com 1.10,2013-08-16 10:31:00,
2013-08-16 06:46:00,57.1,48.0,30.13,WSW,255,7.0,7.0,72,0.00,,,0.00,44,weatherlink.com 1.10,2013-08-16 10:46:00,
2013-08-16 07:01:00,57.5,48.0,30.13,WSW,242,3.0,9.0,71,0.00,,,0.00,139,weatherlink.com 1.10,2013-08-16 11:01:00,
2013-08-16 07:16:00,57.4,48.0,30.13,WSW,242,3.0,7.0,72,0.00,,,0.00,162,weatherlink.com 1.10,2013-08-16 11:16:00,
2013-08-16 07:31:00,57.8,49.0,30.14,WSW,243,2.0,6.0,72,0.00,,,0.00,241,weatherlink.com 1.10,2013-08-16 11:31:00,
2013-08-16 07:46:00,58.3,49.0,30.14,West,259,4.0,9.0,70,0.00,,,0.00,283,weatherlink.com 1.10,2013-08-16 11:46:00,
2013-08-16 08:01:00,58.3,49.0,30.15,West,259,5.0,7.0,71,0.00,,,0.00,315,weatherlink.com 1.10,2013-08-16 12:01:00,
2013-08-16 08:16:00,59.0,49.0,30.14,West,259,5.0,9.0,70,0.00,,,0.00,380,weatherlink.com 1.10,2013-08-16 12:16:00,
2013-08-16 08:31:00,60.3,50.0,30.15,West,259,3.0,6.0,69,0.00,,,0.00,441,weatherlink.com 1.10,2013-08-16 12:31:00,
2013-08-16 08:46:00,60.5,51.0,30.15,West,259,2.0,5.0,71,0.00,,,0.00,464,weatherlink.com 1.10,2013-08-16 12:46:00,
2013-08-16 09:01:00,60.3,50.0,30.15,West,279,5.0,8.0,70,0.00,,,0.00,541,weatherlink.com 1.10,2013-08-16 13:01:00,
2013-08-16 09:31:00,60.9,52.0,30.15,WNW,296,6.0,11.0,72,0.00,,,0.00,628,weatherlink.com 1.10,2013-08-16 13:31:00,
2013-08-16 09:47:00,61.2,52.0,30.15,West,281,10.0,11.0,73,0.00,,,0.00,624,weatherlink.com 1.10,2013-08-16 13:47:00,
2013-08-16 10:02:00,61.8,53.0,30.15,WNW,282,3.0,11.0,73,0.00,,,0.00,659,weatherlink.com 1.10,2013-08-16 14:02:00,
2013-08-16 10:17:00,62.2,53.0,30.15,WNW,299,6.0,12.0,73,0.00,,,0.00,694,weatherlink.com 1.10,2013-08-16 14:17:00,
2013-08-16 10:32:00,63.1,54.0,30.15,WNW,297,9.0,14.0,73,0.00,,,0.00,724,weatherlink.com 1.10,2013-08-16 14:32:00,
2013-08-16 10:47:00,63.9,54.0,30.15,WNW,300,4.0,12.0,70,0.00,,,0.00,756,weatherlink.com 1.10,2013-08-16 14:47:00,
2013-08-16 11:02:00,65.7,56.0,30.15,WNW,294,3.0,9.0,70,0.00,,,0.00,780,weatherlink.com 1.10,2013-08-16 15:02:00,
2013-08-16 11:17:00,65.7,55.0,30.15,NW,319,10.0,11.0,68,0.00,,,0.00,803,weatherlink.com 1.10,2013-08-16 15:17:00,
2013-08-16 11:32:00,67.4,55.0,30.15,WNW,282,7.0,9.0,64,0.00,,,0.00,830,weatherlink.com 1.10,2013-08-16 15:32:00,
2013-08-16 11:47:00,66.9,54.0,30.15,WNW,292,7.0,12.0,63,0.00,,,0.00,860,weatherlink.com 1.10,2013-08-16 15:47:00,
2013-08-16 12:02:00,68.6,54.0,30.15,NNW,333,5.0,11.0,61,0.00,,,0.00,868,weatherlink.com 1.10,2013-08-16 16:02:00,
2013-08-16 12:17:00,68.9,54.0,30.15,NW,307,7.0,10.0,60,0.00,,,0.00,904,weatherlink.com 1.10,2013-08-16 16:17:00,
2013-08-16 12:32:00,69.5,55.0,30.15,WNW,294,2.0,9.0,60,0.00,,,0.00,972,weatherlink.com 1.10,2013-08-16 16:32:00,
2013-08-16 12:47:00,69.1,53.0,30.15,WNW,290,6.0,11.0,57,0.00,,,0.00,912,weatherlink.com 1.10,2013-08-16 16:47:00,
2013-08-16 13:02:00,69.2,52.0,30.15,West,263,7.0,15.0,55,0.00,,,0.00,877,weatherlink.com 1.10,2013-08-16 17:02:00,
2013-08-16 13:17:00,70.3,52.0,30.15,West,261,4.0,12.0,53,0.00,,,0.00,918,weatherlink.com 1.10,2013-08-16 17:17:00,
2013-08-16 13:32:00,69.5,52.0,30.15,WNW,284,10.0,15.0,55,0.00,,,0.00,264,weatherlink.com 1.10,2013-08-16 17:32:00,
2013-08-16 13:47:00,70.2,54.0,30.15,WNW,290,4.0,9.0,56,0.00,,,0.00,563,weatherlink.com 1.10,2013-08-16 17:47:00,
2013-08-16 14:17:00,72.0,55.0,30.15,WNW,288,4.0,11.0,55,0.00,,,0.00,1049,weatherlink.com 1.10,2013-08-16 18:17:00,
2013-08-16 14:32:00,71.3,52.0,30.15,WNW,286,7.0,11.0,51,0.00,,,0.00,856,weatherlink.com 1.10,2013-08-16 18:32:00,
2013-08-16 14:47:00,72.0,52.0,30.15,WSW,254,9.0,10.0,50,0.00,,,0.00,826,weatherlink.com 1.10,2013-08-16 18:47:00,
2013-08-16 15:02:00,71.9,53.0,30.15,NW,312,6.0,11.0,51,0.00,,,0.00,847,weatherlink.com 1.10,2013-08-16 19:02:00,
2013-08-16 15:18:00,73.3,52.0,30.15,WSW,254,8.0,12.0,47,0.00,,,0.00,775,weatherlink.com 1.10,2013-08-16 19:18:00,
2013-08-16 15:32:00,71.9,50.0,30.15,West,263,11.0,13.0,47,0.00,,,0.00,735,weatherlink.com 1.10,2013-08-16 19:32:00,
2013-08-16 15:47:00,73.0,52.0,30.15,WNW,287,8.0,12.0,48,0.00,,,0.00,689,weatherlink.com 1.10,2013-08-16 19:47:00,
2013-08-16 16:02:00,72.4,51.0,30.15,WSW,237,6.0,13.0,48,0.00,,,0.00,671,weatherlink.com 1.10,2013-08-16 20:02:00,
2013-08-16 16:17:00,72.2,51.0,30.15,West,265,5.0,12.0,48,0.00,,,0.00,640,weatherlink.com 1.10,2013-08-16 20:17:00,
2013-08-16 16:32:00,72.1,52.0,30.15,West,267,5.0,10.0,49,0.00,,,0.00,545,weatherlink.com 1.10,2013-08-16 20:32:00,
2013-08-16 16:48:00,73.1,53.0,30.15,West,275,11.0,12.0,49,0.00,,,0.00,513,weatherlink.com 1.10,2013-08-16 20:48:00,
2013-08-16 17:03:00,72.0,52.0,30.15,West,271,7.0,11.0,50,0.00,,,0.00,454,weatherlink.com 1.10,2013-08-16 21:03:00,
2013-08-16 17:18:00,71.7,53.0,30.15,West,259,6.0,12.0,52,0.00,,,0.00,404,weatherlink.com 1.10,2013-08-16 21:18:00,
2013-08-16 17:33:00,71.6,52.0,30.15,West,273,8.0,14.0,51,0.00,,,0.00,353,weatherlink.com 1.10,2013-08-16 21:33:00,
2013-08-16 17:48:00,71.6,53.0,30.15,West,267,8.0,10.0,52,0.00,,,0.00,308,weatherlink.com 1.10,2013-08-16 21:48:00,
2013-08-16 18:03:00,71.2,54.0,30.15,West,269,5.0,11.0,54,0.00,,,0.00,258,weatherlink.com 1.10,2013-08-16 22:03:00,
2013-08-16 18:18:00,70.7,55.0,30.15,WSW,247,5.0,11.0,57,0.00,,,0.00,207,weatherlink.com 1.10,2013-08-16 22:18:00,
2013-08-16 18:33:00,70.4,55.0,30.15,WSW,258,4.0,10.0,58,0.00,,,0.00,155,weatherlink.com 1.10,2013-08-16 22:33:00,
2013-08-16 18:48:00,69.8,55.0,30.16,WSW,256,6.0,11.0,59,0.00,,,0.00,102,weatherlink.com 1.10,2013-08-16 22:48:00,
2013-08-16 19:03:00,69.0,54.0,30.16,WSW,253,8.0,10.0,60,0.00,,,0.00,62,weatherlink.com 1.10,2013-08-16 23:03:00,
2013-08-16 19:18:00,68.0,55.0,30.16,WSW,251,5.0,11.0,63,0.00,,,0.00,30,weatherlink.com 1.10,2013-08-16 23:18:00,
2013-08-16 19:33:00,67.0,55.0,30.17,WSW,250,5.0,12.0,65,0.00,,,0.00,12,weatherlink.com 1.10,2013-08-16 23:33:00,
2013-08-16 19:48:00,66.3,54.0,30.17,WSW,247,10.0,11.0,65,0.00,,,0.00,5,weatherlink.com 1.10,2013-08-16 23:48:00,
2013-08-16 20:03:00,66.1,54.0,30.17,WSW,238,8.0,12.0,65,0.00,,,0.00,0,weatherlink.com 1.10,2013-08-17 00:03:00,
2013-08-16 20:18:00,65.8,54.0,30.18,WSW,251,8.0,14.0,65,0.00,,,0.00,0,weatherlink.com 1.10,2013-08-17 00:18:00,
2013-08-16 20:33:00,66.3,54.0,30.18,West,263,7.0,16.0,64,0.00,,,0.00,0,weatherlink.com 1.10,2013-08-17 00:33:00,
2013-08-16 20:48:00,66.2,54.0,30.18,WSW,250,9.0,14.0,64,0.00,,,0.00,0,weatherlink.com 1.10,2013-08-17 00:48:00,
2013-08-16 21:03:00,66.1,53.0,30.19,WSW,251,10.0,15.0,64,0.00,,,0.00,0,weatherlink.com 1.10,2013-08-17 01:03:00,
2013-08-16 21:18:00,65.6,54.0,30.20,West,259,9.0,13.0,66,0.00,,,0.00,0,weatherlink.com 1.10,2013-08-17 01:18:00,
2013-08-16 21:33:00,65.3,54.0,30.20,WSW,253,10.0,14.0,67,0.00,,,0.00,0,weatherlink.com 1.10,2013-08-17 01:33:00,
2013-08-16 21:48:00,64.9,54.0,30.20,WSW,241,9.0,13.0,68,0.00,,,0.00,0,weatherlink.com 1.10,2013-08-17 01:48:00,
2013-08-16 22:03:00,65.4,54.0,30.20,West,261,12.0,15.0,66,0.00,,,0.00,0,weatherlink.com 1.10,2013-08-17 02:03:00,
2013-08-16 22:18:00,65.3,54.0,30.20,WSW,254,9.0,13.0,66,0.00,,,0.00,0,weatherlink.com 1.10,2013-08-17 02:18:00,
2013-08-16 22:33:00,65.2,54.0,30.20,West,263,9.0,12.0,67,0.00,,,0.00,0,weatherlink.com 1.10,2013-08-17 02:33:00,
2013-08-16 22:48:00,64.6,54.0,30.20,West,262,4.0,9.0,68,0.00,,,0.00,0,weatherlink.com 1.10,2013-08-17 02:48:00,
2013-08-16 23:03:00,64.6,54.0,30.21,West,263,6.0,10.0,69,0.00,,,0.00,0,weatherlink.com 1.10,2013-08-17 03:03:00,
2013-08-16 23:18:00,64.4,54.0,30.21,West,265,6.0,10.0,69,0.00,,,0.00,0,weatherlink.com 1.10,2013-08-17 03:18:00,
2013-08-16 23:33:00,64.2,54.0,30.21,West,265,4.0,8.0,70,0.00,,,0.00,0,weatherlink.com 1.10,2013-08-17 03:33:00,
2013-08-16 23:48:00,64.1,54.0,30.21,West,265,4.0,7.0,70,0.00,,,0.00,0,weatherlink.com 1.10,2013-08-17 03:48:00,